Погода Поусо Алегрена неделю

Минас-Жерайс, Бразилия

20 - 26 июля
  • 20июля
    Сегодня
    +8°
    +26°
    Ясно и безоблачно
    ВремяПогодаТемператураВлажностьДавлениеВетер, м/сВероятность осадков
    00:00Ясно и безоблачно+14°C79 %692 мм0.8 м/с5 %
    03:00Ясно и безоблачно+12°C84 %691 мм0.5 м/с5 %
    06:00Практически безоблачно+9°C92 %690 мм0.8 м/с5 %
    09:00Ясно и безоблачно+14°C72 %693 мм0.8 м/с5 %
    12:00Ясно и безоблачно+22°C49 %693 мм0.7 м/с5 %
    15:00Ясно и безоблачно+25°C37 %692 мм1.1 м/с5 %
    18:00Ясно и безоблачно+20°C59 %690 мм1.9 м/с5 %
    21:00Ясно и безоблачно+16°C75 %691 мм1.1 м/с5 %
  • 21июля
    Воскресенье
    +8°
    +25°
    Ясно и безоблачно
    ВремяПогодаТемператураВлажностьДавлениеВетер, м/сВероятность осадков
    00:00Ясно и безоблачно+13°C86 %691 мм0.6 м/с5 %
    03:00Ясно и безоблачно+12°C86 %690 мм0.4 м/с5 %
    06:00Ясно и безоблачно+9°C94 %690 мм1.2 м/с5 %
    09:00Ясно и безоблачно+14°C71 %692 мм1.1 м/с5 %
    12:00Ясно и безоблачно+21°C43 %693 мм1.9 м/с5 %
    15:00Ясно и безоблачно+24°C36 %691 мм1.6 м/с5 %
    18:00Ясно и безоблачно+19°C58 %691 мм1.9 м/с5 %
    21:00Ясно и безоблачно+14°C79 %690 мм1.6 м/с5 %
  • 22июля
    Понедельник
    +9°
    +26°
    Ясно и безоблачно
    ВремяПогодаТемператураВлажностьДавлениеВетер, м/сВероятность осадков
    00:00Ясно и безоблачно+12°C81 %691 мм1.0 м/с5 %
    03:00Ясно и безоблачно+12°C82 %691 мм0.3 м/с5 %
    06:00Ясно и безоблачно+9°C93 %690 мм1.0 м/с5 %
    09:00Ясно и безоблачно+14°C69 %693 мм0.7 м/с5 %
    12:00Ясно и безоблачно+22°C47 %693 мм0.4 м/с5 %
    15:00Ясно и безоблачно+26°C31 %692 мм0.4 м/с5 %
    18:00Ясно и безоблачно+20°C57 %691 мм2.0 м/с5 %
    21:00Ясно и безоблачно+16°C68 %691 мм1.5 м/с5 %
  • 23июля
    Вторник
    +8°
    +26°
    Ясно и безоблачно
    ВремяПогодаТемператураВлажностьДавлениеВетер, м/сВероятность осадков
    00:00Ясно и безоблачно+13°C79 %691 мм1.2 м/с5 %
    03:00Ясно и безоблачно+12°C82 %691 мм0.4 м/с5 %
    06:00Ясно и безоблачно+10°C89 %691 мм0.8 м/с5 %
    09:00Ясно и безоблачно+15°C67 %693 мм0.8 м/с5 %
    12:00Ясно и безоблачно+22°C45 %694 мм1.4 м/с5 %
    15:00Ясно и безоблачно+25°C38 %693 мм1.3 м/с5 %
    18:00Ясно и безоблачно+20°C57 %692 мм1.5 м/с5 %
    21:00Ясно и безоблачно+17°C64 %692 мм1.3 м/с5 %
Мы используем cookies
Соглашаюсь